createdAt,value
2022-09-27T00:08:20.552Z,0.9
2022-09-27T00:20:20.550Z,1.0
2022-09-27T00:32:20.552Z,1.0
2022-09-27T00:44:20.561Z,1.0
2022-09-27T00:56:20.526Z,1.0
2022-09-27T01:08:20.511Z,1.0
2022-09-27T01:20:20.534Z,0.8
2022-09-27T01:32:20.557Z,0.8
2022-09-27T01:44:20.533Z,0.8
2022-09-27T01:56:20.545Z,0.6
2022-09-27T02:08:20.534Z,0.6
2022-09-27T02:20:20.563Z,0.7
2022-09-27T02:32:20.560Z,0.7
2022-09-27T02:44:20.536Z,0.7
2022-09-27T02:56:20.547Z,0.5
2022-09-27T03:08:20.565Z,0.5
2022-09-27T03:20:20.654Z,0.6
2022-09-27T03:32:20.555Z,0.6
2022-09-27T03:44:20.531Z,0.6
2022-09-27T03:56:20.510Z,0.5
2022-09-27T04:08:20.553Z,0.5
2022-09-27T04:20:20.532Z,0.5
2022-09-27T04:32:20.537Z,0.5
2022-09-27T04:44:21.136Z,0.5
2022-09-27T04:56:20.698Z,0.4
2022-09-27T05:08:20.792Z,0.4
2022-09-27T05:20:20.699Z,0.4
2022-09-27T05:32:20.605Z,0.4
2022-09-27T05:44:20.580Z,0.4
2022-09-27T05:56:20.616Z,0.3
2022-09-27T06:08:20.529Z,0.3
2022-09-27T06:20:21.116Z,0.3
2022-09-27T06:32:21.698Z,0.3
2022-09-27T06:44:20.652Z,0.3
2022-09-27T06:56:21.235Z,0.4
2022-09-27T07:08:21.176Z,0.4
2022-09-27T07:20:20.979Z,0.5
2022-09-27T07:32:21.271Z,0.5
2022-09-27T07:44:21.049Z,0.5
2022-09-27T07:56:21.307Z,0.3
2022-09-27T08:08:21.054Z,0.3
2022-09-27T08:20:21.001Z,0.5
2022-09-27T08:32:23.252Z,0.5
2022-09-27T08:44:20.849Z,0.5
2022-09-27T08:56:21.274Z,0.3
2022-09-27T09:08:21.229Z,0.3
2022-09-27T09:20:20.985Z,0.4
2022-09-27T09:32:21.027Z,0.4
2022-09-27T09:44:21.154Z,0.4
2022-09-27T09:56:21.223Z,0.5
2022-09-27T10:08:21.251Z,0.5
2022-09-27T10:20:21.177Z,0.7
2022-09-27T10:32:20.972Z,0.7
2022-09-27T10:44:21.228Z,0.7
2022-09-27T10:56:20.584Z,0.7
2022-09-27T11:08:21.031Z,0.7
2022-09-27T11:20:20.971Z,0.6
2022-09-27T11:32:20.912Z,0.6
2022-09-27T11:44:20.929Z,0.6
2022-09-27T11:56:21.149Z,0.6
2022-09-27T12:08:21.357Z,0.6
2022-09-27T12:20:20.897Z,0.5
2022-09-27T12:32:21.346Z,0.5
2022-09-27T12:44:21.264Z,0.5
2022-09-27T12:56:21.080Z,0.7
2022-09-27T13:08:20.906Z,0.7
2022-09-27T13:20:21.040Z,0.6
2022-09-27T13:32:21.103Z,0.6
2022-09-27T13:44:20.850Z,0.6
2022-09-27T13:56:21.008Z,0.9
2022-09-27T14:08:21.004Z,0.9
2022-09-27T14:20:20.925Z,0.6
2022-09-27T14:32:21.095Z,0.6
2022-09-27T14:44:24.669Z,0.6
2022-09-27T14:56:20.769Z,1.4
2022-09-27T15:08:20.914Z,1.4
2022-09-27T15:20:20.967Z,1.2
2022-09-27T15:32:21.052Z,1.2
2022-09-27T15:44:20.991Z,1.2
2022-09-27T15:56:21.040Z,1.1
2022-09-27T16:08:21.046Z,1.1
2022-09-27T16:20:20.722Z,1.4
2022-09-27T16:32:20.980Z,1.4
2022-09-27T16:44:20.707Z,1.4
2022-09-27T16:56:20.686Z,1.3
2022-09-27T17:08:21.348Z,1.3
2022-09-27T17:20:21.071Z,1.3
2022-09-27T17:32:20.898Z,1.3
2022-09-27T17:44:21.048Z,1.3
2022-09-27T17:56:20.687Z,1.5
2022-09-27T18:08:21.014Z,1.5
2022-09-27T18:20:20.865Z,2.0
2022-09-27T18:32:20.848Z,2.0
2022-09-27T18:44:20.913Z,2.0
2022-09-27T18:56:20.880Z,1.6
2022-09-27T19:08:21.400Z,1.6
2022-09-27T19:20:21.117Z,1.6
2022-09-27T19:32:20.953Z,1.6
2022-09-27T19:44:20.912Z,1.6
2022-09-27T19:56:20.609Z,1.7
2022-09-27T20:08:20.635Z,1.7
2022-09-27T20:20:20.930Z,1.3
2022-09-27T20:32:27.851Z,1.3
2022-09-27T20:44:20.545Z,1.3
2022-09-27T20:56:20.633Z,1.2
2022-09-27T21:08:20.874Z,1.2
2022-09-27T21:20:20.551Z,1.3
2022-09-27T21:32:20.688Z,1.3
2022-09-27T21:44:21.347Z,1.3
2022-09-27T21:56:20.598Z,1.1
2022-09-27T22:08:20.944Z,1.1
2022-09-27T22:20:20.599Z,1.2
2022-09-27T22:32:20.559Z,1.2
2022-09-27T22:44:20.562Z,1.2
2022-09-27T22:56:20.789Z,1.1
2022-09-27T23:08:20.764Z,1.1
2022-09-27T23:20:20.831Z,0.8
2022-09-27T23:32:20.626Z,0.8
2022-09-27T23:44:20.621Z,0.8
2022-09-27T23:56:21.002Z,0.8
